Time;durP1;ratioP1;P1;durP2;ratioP2;P2;SDS_P1;SDS_P2;PMS_P1;PMS_P2;Temp;Humidity;BMP_temperature;BMP_pressure;BME280_temperature;BME280_humidity;BME280_pressure;Samples;Min_cycle;Max_cycle;Signal;HPM_P1;HPM_P2
2023/10/02 00:02:11;;;;;;;22.55;8.70;;;;;;;15.16;100.00;101372.78;5021105;28;21078;-85
2023/10/02 00:04:45;;;;;;;19.83;8.82;;;;;;;15.19;100.00;101371.41;5024828;28;20775;-84
2023/10/02 00:07:22;;;;;;;22.60;8.48;;;;;;;15.16;100.00;101366.50;5043708;28;20434;-84
2023/10/02 00:09:56;;;;;;;21.02;8.65;;;;;;;15.15;100.00;101368.44;5026850;28;20426;-84
2023/10/02 00:12:31;;;;;;;20.50;8.52;;;;;;;15.13;100.00;101371.47;5021121;28;20420;-84
2023/10/02 00:15:12;;;;;;;21.63;8.95;;;;;;;15.13;100.00;101365.16;5027364;28;20906;-83
2023/10/02 00:17:48;;;;;;;23.20;8.52;;;;;;;15.13;100.00;101368.75;5019747;28;20422;-84
2023/10/02 00:20:22;;;;;;;21.25;8.23;;;;;;;15.11;100.00;101362.72;5022538;28;20417;-84
2023/10/02 00:22:52;;;;;;;16.58;8.13;;;;;;;15.13;100.00;101362.41;5022176;28;20411;-84
2023/10/02 00:25:27;;;;;;;20.33;8.40;;;;;;;15.13;100.00;101357.78;5038191;28;20440;-84
2023/10/02 00:28:00;;;;;;;17.70;8.23;;;;;;;15.14;100.00;101364.06;5023408;28;20428;-84
2023/10/02 00:30:36;;;;;;;23.75;9.27;;;;;;;15.13;100.00;101354.19;5020790;28;20899;-84
2023/10/02 00:33:11;;;;;;;18.00;8.57;;;;;;;15.10;100.00;101343.81;5037172;28;20419;-84
2023/10/02 00:35:50;;;;;;;18.95;8.95;;;;;;;15.04;100.00;101345.81;5043894;28;20426;-84
2023/10/02 00:38:24;;;;;;;22.65;9.10;;;;;;;15.06;100.00;101340.84;5024364;28;20432;-83
2023/10/02 00:40:52;;;;;;;25.23;8.60;;;;;;;15.04;100.00;101331.28;5038448;28;20426;-83
2023/10/02 00:43:33;;;;;;;23.07;9.90;;;;;;;15.04;100.00;101326.63;5026660;28;20808;-83
2023/10/02 00:46:23;;;;;;;24.70;9.32;;;;;;;15.04;100.00;101323.91;5025989;28;20431;-83
2023/10/02 00:48:56;;;;;;;26.02;9.75;;;;;;;15.05;100.00;101311.81;5039480;28;20428;-83
2023/10/02 00:51:33;;;;;;;22.65;9.40;;;;;;;15.03;100.00;101311.28;5022940;28;20430;-83
2023/10/02 00:54:23;;;;;;;28.08;9.98;;;;;;;15.04;100.00;101314.84;5018943;28;20430;-83
2023/10/02 00:56:51;;;;;;;25.60;10.23;;;;;;;15.04;100.00;101315.66;5024185;28;20406;-83
2023/10/02 00:59:25;;;;;;;25.87;9.67;;;;;;;15.08;100.00;101322.19;5019062;28;20428;-82
2023/10/02 01:02:05;;;;;;;24.92;9.82;;;;;;;15.09;100.00;101325.75;5021285;28;21043;-83
2023/10/02 01:04:38;;;;;;;22.70;9.85;;;;;;;15.05;100.00;101313.72;5022713;28;20451;-83
2023/10/02 01:07:16;;;;;;;24.33;9.60;;;;;;;15.02;100.00;101317.06;5037109;28;20428;-83
2023/10/02 01:12:43;;;;;;;21.00;9.13;;;;;;;15.04;100.00;101321.16;5022710;28;20423;-82
2023/10/02 01:15:20;;;;;;;23.40;9.57;;;;;;;15.02;100.00;101314.34;5021714;28;20428;-84
2023/10/02 01:18:18;;;;;;;24.60;9.88;;;;;;;15.03;100.00;101311.28;5018523;28;20674;-82
2023/10/02 01:20:53;;;;;;;24.95;10.13;;;;;;;15.01;100.00;101315.44;5034232;28;20427;-83
2023/10/02 01:23:28;;;;;;;24.23;10.07;;;;;;;15.02;100.00;101314.34;5027963;28;21021;-83
2023/10/02 01:26:03;;;;;;;26.50;9.73;;;;;;;15.03;100.00;101319.50;5045095;28;20422;-83
2023/10/02 01:28:49;;;;;;;24.27;9.95;;;;;;;15.05;100.00;101320.06;5019862;28;20765;-82
2023/10/02 01:31:41;;;;;;;21.48;9.00;;;;;;;15.13;100.00;101313.91;5019867;28;20876;-83
2023/10/02 01:34:33;;;;;;;24.80;9.70;;;;;;;15.10;100.00;101322.69;5043179;28;20427;-83
2023/10/02 01:37:32;;;;;;;20.48;9.60;;;;;;;15.08;100.00;101324.09;5041607;28;20425;-83
2023/10/02 01:42:49;;;;;;;22.15;9.52;;;;;;;15.11;100.00;101329.03;5026976;28;20423;-83
2023/10/02 01:45:22;;;;;;;23.70;10.30;;;;;;;15.13;100.00;101322.13;5033168;28;20876;-83
2023/10/02 01:47:55;;;;;;;22.13;9.67;;;;;;;15.10;100.00;101314.47;5021399;28;20420;-83
2023/10/02 01:50:30;;;;;;;22.25;9.82;;;;;;;15.14;100.00;101309.22;5021270;28;20427;-83
2023/10/02 01:52:58;;;;;;;22.30;9.00;;;;;;;15.12;100.00;101305.94;5035952;28;20436;-84
2023/10/02 01:55:31;;;;;;;23.23;9.30;;;;;;;15.11;100.00;101309.84;5019498;28;20426;-83
2023/10/02 01:58:16;;;;;;;24.42;9.68;;;;;;;15.16;100.00;101308.94;5038521;28;20450;-84
2023/10/02 02:00:51;;;;;;;24.15;10.43;;;;;;;15.14;100.00;101309.22;5039838;28;20442;-83
2023/10/02 02:03:28;;;;;;;24.77;9.70;;;;;;;15.19;100.00;101316.56;5035648;28;20784;-83
2023/10/02 02:06:08;;;;;;;24.52;9.43;;;;;;;15.21;100.00;101301.44;5027289;28;20422;-83
2023/10/02 02:08:43;;;;;;;24.48;9.63;;;;;;;15.17;100.00;101302.34;5021975;28;20744;-83
2023/10/02 02:11:20;;;;;;;23.15;10.15;;;;;;;15.12;100.00;101311.44;5041135;28;20408;-83
2023/10/02 02:13:55;;;;;;;20.67;9.75;;;;;;;15.14;100.00;101303.75;5020377;28;20422;-83
2023/10/02 02:16:33;;;;;;;20.40;8.90;;;;;;;15.13;100.00;101310.34;5036901;28;20969;-82
2023/10/02 02:19:08;;;;;;;22.95;9.75;;;;;;;15.13;100.00;101311.16;5025542;28;20513;-83
2023/10/02 02:21:38;;;;;;;22.95;10.15;;;;;;;15.14;100.00;101304.56;5024199;28;20427;-83
2023/10/02 02:24:11;;;;;;;23.98;10.10;;;;;;;15.14;100.00;101306.50;5020063;28;20947;-82
2023/10/02 02:26:44;;;;;;;23.40;9.60;;;;;;;15.14;100.00;101307.28;5021716;28;20430;-83
2023/10/02 02:29:23;;;;;;;26.05;9.70;;;;;;;15.16;100.00;101312.47;5017184;28;20455;-82
2023/10/02 02:31:56;;;;;;;21.70;9.70;;;;;;;15.16;100.00;101308.94;5020876;28;21168;-83
2023/10/02 02:34:25;;;;;;;22.95;9.07;;;;;;;15.13;100.00;101307.59;5033942;28;20438;-83
2023/10/02 02:36:59;;;;;;;24.23;9.57;;;;;;;15.17;100.00;101308.63;5025667;28;20429;-83
2023/10/02 02:39:32;;;;;;;22.45;9.65;;;;;;;15.16;100.00;101297.97;5032293;28;20420;-83
2023/10/02 02:42:22;;;;;;;20.67;9.33;;;;;;;15.17;100.00;101305.91;5017585;28;20433;-83
2023/10/02 02:44:56;;;;;;;26.98;9.75;;;;;;;15.19;100.00;101300.09;5017705;28;20416;-84
2023/10/02 02:47:51;;;;;;;24.42;9.77;;;;;;;15.17;100.00;101297.66;5031472;28;20413;-84
2023/10/02 02:50:27;;;;;;;22.35;9.63;;;;;;;15.18;100.00;101293.00;5034937;28;20433;-84
2023/10/02 02:56:10;;;;;;;24.15;9.07;;;;;;;15.17;100.00;101296.88;5042030;28;20507;-84
2023/10/02 02:58:44;;;;;;;21.92;9.55;;;;;;;15.16;100.00;101287.00;5042561;28;20797;-83
2023/10/02 03:01:22;;;;;;;23.00;9.73;;;;;;;15.16;100.00;101303.44;5030361;28;20434;-84
2023/10/02 03:03:58;;;;;;;21.50;9.65;;;;;;;15.14;100.00;101293.59;5035776;28;20907;-83
2023/10/02 03:06:32;;;;;;;23.07;9.50;;;;;;;15.17;100.00;101288.63;5019626;28;21285;-83
2023/10/02 03:09:05;;;;;;;20.17;8.85;;;;;;;15.16;100.00;101279.56;5037215;28;20427;-83
2023/10/02 03:11:34;;;;;;;24.60;9.70;;;;;;;15.13;100.00;101289.25;5034743;28;20416;-83
2023/10/02 03:14:16;;;;;;;24.60;9.60;;;;;;;15.12;100.00;101287.59;5020384;28;20432;-82
2023/10/02 03:16:51;;;;;;;23.40;9.25;;;;;;;15.12;100.00;101292.25;5016562;28;20425;-83
2023/10/02 03:19:25;;;;;;;26.98;9.23;;;;;;;15.10;100.00;101287.06;5022256;28;20437;-83
2023/10/02 03:22:01;;;;;;;20.02;9.02;;;;;;;15.09;100.00;101288.19;5038169;28;20442;-83
2023/10/02 03:24:34;;;;;;;25.27;9.93;;;;;;;15.09;100.00;101287.38;5037576;28;20446;-83
2023/10/02 03:27:09;;;;;;;20.67;9.35;;;;;;;15.08;100.00;101281.06;5023743;28;21255;-83
2023/10/02 03:29:38;;;;;;;23.50;9.65;;;;;;;15.07;100.00;101284.91;5022429;28;20405;-83
2023/10/02 03:32:12;;;;;;;23.52;9.52;;;;;;;15.04;100.00;101290.16;5045588;28;20431;-83
2023/10/02 03:34:48;;;;;;;24.63;9.77;;;;;;;15.01;100.00;101279.81;5025048;28;20415;-83
2023/10/02 03:37:21;;;;;;;21.70;9.33;;;;;;;15.00;100.00;101294.59;5035035;28;20435;-83
2023/10/02 03:40:13;;;;;;;24.83;10.20;;;;;;;14.96;100.00;101284.25;5026482;28;20433;-83
2023/10/02 03:42:47;;;;;;;24.08;9.93;;;;;;;14.94;100.00;101281.00;5021121;28;20437;-83
2023/10/02 03:45:38;;;;;;;24.10;10.07;;;;;;;14.94;100.00;101282.91;5024142;28;20430;-83
2023/10/02 03:48:15;;;;;;;24.70;10.80;;;;;;;14.90;100.00;101279.94;5025082;28;20415;-83
2023/10/02 03:50:48;;;;;;;24.30;10.60;;;;;;;14.86;100.00;101289.03;5021553;28;20439;-83
2023/10/02 03:53:29;;;;;;;27.42;10.30;;;;;;;14.83;100.00;101284.16;5024444;28;20422;-83
2023/10/02 03:58:54;;;;;;;22.02;9.77;;;;;;;14.68;100.00;101276.94;5030162;28;20434;-83
2023/10/02 04:01:28;;;;;;;24.73;9.97;;;;;;;14.67;100.00;101275.31;5022130;28;20981;-84
2023/10/02 04:04:19;;;;;;;25.63;9.55;;;;;;;14.70;100.00;101277.47;5044008;28;20430;-83
2023/10/02 04:06:47;;;;;;;23.75;10.13;;;;;;;14.63;100.00;101275.09;5041184;28;21017;-84
2023/10/02 04:09:23;;;;;;;22.43;9.73;;;;;;;14.57;100.00;101279.78;5029481;28;20493;-83
2023/10/02 04:11:58;;;;;;;22.38;9.82;;;;;;;14.54;100.00;101272.16;5019981;28;20418;-83
2023/10/02 04:14:38;;;;;;;21.67;9.93;;;;;;;14.46;100.00;101270.88;5020909;28;20436;-84
2023/10/02 04:17:13;;;;;;;22.15;9.55;;;;;;;14.42;100.00;101269.81;5024732;28;20426;-83
2023/10/02 04:19:49;;;;;;;25.15;9.98;;;;;;;14.36;100.00;101261.94;5022091;28;20420;-83
2023/10/02 04:22:22;;;;;;;23.93;9.83;;;;;;;14.35;100.00;101263.03;5022757;28;20425;-83
2023/10/02 04:24:54;;;;;;;23.63;10.05;;;;;;;14.35;100.00;101263.88;5025556;28;20433;-83
2023/10/02 04:28:00;;;;;;;22.25;9.45;;;;;;;14.31;100.00;101265.56;5028128;28;20427;-82
2023/10/02 04:30:24;;;;;;;21.15;9.32;;;;;;;14.36;100.00;101265.53;5038609;28;20431;-83
2023/10/02 04:33:00;;;;;;;22.65;9.77;;;;;;;14.34;100.00;101262.25;5018907;28;20444;-83
2023/10/02 04:35:45;;;;;;;24.00;9.73;;;;;;;14.35;100.00;101263.03;5024615;28;20427;-83
2023/10/02 04:38:48;;;;;;;25.20;10.05;;;;;;;14.34;100.00;101272.38;5022452;28;20419;-83
2023/10/02 04:41:20;;;;;;;27.20;10.07;;;;;;;14.32;100.00;101264.47;5020371;28;20424;-83
2023/10/02 04:43:57;;;;;;;24.27;9.85;;;;;;;14.31;100.00;101262.81;5023836;28;20415;-83
2023/10/02 04:46:32;;;;;;;20.52;9.15;;;;;;;14.23;100.00;101258.00;5025654;28;20416;-82
2023/10/02 04:49:08;;;;;;;23.77;9.80;;;;;;;14.18;100.00;101253.38;5042615;28;20433;-83
2023/10/02 04:51:46;;;;;;;24.13;9.48;;;;;;;14.15;100.00;101255.88;5043498;28;20434;-83
2023/10/02 04:54:15;;;;;;;21.63;9.73;;;;;;;14.19;100.00;101259.66;5024946;28;21000;-82
2023/10/02 04:57:08;;;;;;;24.77;10.48;;;;;;;14.18;100.00;101258.84;5035379;28;20429;-83
2023/10/02 04:59:54;;;;;;;25.17;10.60;;;;;;;14.21;100.00;101263.75;5027784;28;20787;-83
2023/10/02 05:02:29;;;;;;;21.93;10.60;;;;;;;14.24;100.00;101257.69;5037189;28;20915;-82
2023/10/02 05:05:05;;;;;;;26.05;10.60;;;;;;;14.29;100.00;101259.53;5021293;28;20420;-83
2023/10/02 05:07:36;;;;;;;27.05;10.27;;;;;;;14.32;100.00;101252.69;5023436;28;20738;-83
2023/10/02 05:10:06;;;;;;;27.40;10.93;;;;;;;14.32;100.00;101255.41;5042114;28;20432;-83
2023/10/02 05:12:44;;;;;;;30.58;10.93;;;;;;;14.37;100.00;101252.63;5039664;28;20436;-83
2023/10/02 05:15:20;;;;;;;25.40;10.38;;;;;;;14.36;100.00;101251.81;5030342;28;20431;-83
2023/10/02 05:17:55;;;;;;;25.52;10.68;;;;;;;14.37;100.00;101252.63;5023161;28;20422;-83
2023/10/02 05:20:26;;;;;;;22.03;10.73;;;;;;;14.40;100.00;101243.81;5019485;28;20421;-83
2023/10/02 05:23:03;;;;;;;25.45;10.77;;;;;;;14.41;100.00;101242.72;5022308;28;20422;-83
2023/10/02 05:25:37;;;;;;;26.52;10.73;;;;;;;14.39;100.00;101248.50;5024662;28;20903;-83
2023/10/02 05:28:10;;;;;;;27.33;10.48;;;;;;;14.41;100.00;101249.00;5028276;28;20979;-83
2023/10/02 05:30:44;;;;;;;26.27;10.07;;;;;;;14.39;100.00;101239.44;5042528;28;20913;-83
2023/10/02 05:33:36;;;;;;;25.67;10.70;;;;;;;14.43;100.00;101233.13;5036021;28;20431;-83
2023/10/02 05:36:07;;;;;;;25.95;11.00;;;;;;;14.44;100.00;101250.34;5021750;28;20431;-83
2023/10/02 05:39:04;;;;;;;25.77;10.70;;;;;;;14.52;100.00;101246.16;5027152;28;20442;-84
2023/10/02 05:41:38;;;;;;;24.75;10.15;;;;;;;14.44;100.00;101253.09;5013467;28;20408;-82
2023/10/02 05:44:13;;;;;;;25.77;10.18;;;;;;;14.42;100.00;101250.66;5035240;28;20443;-83
2023/10/02 05:47:04;;;;;;;26.67;10.57;;;;;;;14.45;100.00;101261.00;5024688;28;20770;-83
2023/10/02 05:49:43;;;;;;;23.63;10.47;;;;;;;14.40;100.00;101258.34;5023113;28;20525;-83
2023/10/02 05:52:11;;;;;;;25.30;9.90;;;;;;;14.38;100.00;101259.75;5021491;28;20423;-83
2023/10/02 05:54:53;;;;;;;26.63;10.18;;;;;;;14.35;100.00;101255.66;5023711;28;20449;-83
2023/10/02 05:57:22;;;;;;;24.08;10.15;;;;;;;14.29;100.00;101252.16;5021726;28;20455;-83
2023/10/02 05:59:54;;;;;;;22.77;10.27;;;;;;;14.31;100.00;101260.09;5023385;28;20782;-82
2023/10/02 06:02:23;;;;;;;25.02;10.18;;;;;;;14.32;100.00;101267.19;5023718;28;20894;-83
2023/10/02 06:05:07;;;;;;;22.73;9.88;;;;;;;14.32;100.00;101259.00;5023019;28;20939;-83
2023/10/02 06:07:43;;;;;;;23.38;10.05;;;;;;;14.34;100.00;101254.03;5034302;28;20427;-83
2023/10/02 06:10:26;;;;;;;24.70;10.63;;;;;;;14.35;100.00;101263.03;5032694;28;20427;-83
2023/10/02 06:13:03;;;;;;;23.25;9.98;;;;;;;14.39;100.00;101273.13;5023387;28;20436;-83
2023/10/02 06:15:47;;;;;;;23.23;9.95;;;;;;;14.44;100.00;101273.09;5020304;28;20423;-83
2023/10/02 06:18:27;;;;;;;24.73;9.90;;;;;;;14.45;100.00;101266.47;5018499;28;20427;-83
2023/10/02 06:21:01;;;;;;;24.25;9.50;;;;;;;14.45;100.00;101266.47;5023824;28;20781;-84
2023/10/02 06:23:37;;;;;;;23.75;10.57;;;;;;;14.46;100.00;101275.53;5025165;28;20424;-83
2023/10/02 06:26:11;;;;;;;24.73;9.95;;;;;;;14.52;100.00;101268.88;5026964;28;20419;-84
2023/10/02 06:28:47;;;;;;;25.48;10.75;;;;;;;14.52;100.00;101271.63;5034695;28;20435;-84
2023/10/02 06:31:31;;;;;;;24.25;10.15;;;;;;;14.55;100.00;101271.03;5022657;28;20430;-84
2023/10/02 06:34:06;;;;;;;24.53;10.10;;;;;;;14.56;100.00;101260.91;5026449;28;20437;-83
2023/10/02 06:36:48;;;;;;;24.48;9.82;;;;;;;14.59;100.00;101257.56;5039976;28;20427;-83
2023/10/02 06:39:22;;;;;;;24.55;10.38;;;;;;;14.61;100.00;101263.56;5025720;28;20427;-84
2023/10/02 06:42:04;;;;;;;26.23;9.90;;;;;;;14.68;100.00;101257.75;5022292;28;20410;-84
2023/10/02 06:44:37;;;;;;;23.13;10.15;;;;;;;14.71;100.00;101258.00;5019690;28;20433;-84
2023/10/02 06:47:11;;;;;;;26.02;10.38;;;;;;;14.73;100.00;101265.91;5039756;28;20933;-84
2023/10/02 06:49:44;;;;;;;23.92;9.70;;;;;;;14.74;100.00;101270.31;5022592;28;20413;-84
2023/10/02 06:52:15;;;;;;;27.17;9.60;;;;;;;14.83;100.00;101279.50;5037513;28;20438;-83
2023/10/02 06:54:44;;;;;;;23.67;10.37;;;;;;;14.87;100.00;101272.28;5026524;28;20418;-83
2023/10/02 06:57:20;;;;;;;24.05;9.90;;;;;;;14.87;100.00;101271.50;5039778;28;20436;-83
2023/10/02 06:59:52;;;;;;;22.30;9.50;;;;;;;14.91;100.00;101269.78;5024408;28;21132;-83
2023/10/02 07:02:21;;;;;;;24.10;10.00;;;;;;;14.86;100.00;101275.34;5026598;28;20435;-84
2023/10/02 07:04:52;;;;;;;25.20;9.77;;;;;;;14.93;100.00;101267.59;5029067;28;20422;-84
2023/10/02 07:07:30;;;;;;;21.55;10.15;;;;;;;14.93;100.00;101265.66;5033671;28;20911;-84
2023/10/02 07:10:08;;;;;;;25.50;10.05;;;;;;;14.97;100.00;101274.13;5026086;28;20429;-84
2023/10/02 07:12:43;;;;;;;25.60;9.80;;;;;;;15.03;100.00;101272.91;5024079;28;20424;-84
2023/10/02 07:15:12;;;;;;;24.80;10.00;;;;;;;15.06;100.00;101277.81;5042875;28;20431;-84
2023/10/02 07:17:47;;;;;;;23.25;10.05;;;;;;;15.08;100.00;101272.84;5031564;28;20450;-83
2023/10/02 07:20:17;;;;;;;24.92;10.15;;;;;;;15.21;100.00;101279.50;5044602;28;20435;-84
2023/10/02 07:22:51;;;;;;;21.58;9.70;;;;;;;15.20;100.00;101280.63;5021749;28;20418;-83
2023/10/02 07:25:26;;;;;;;24.50;9.80;;;;;;;15.28;100.00;101284.63;5051535;28;20433;-84
2023/10/02 07:28:03;;;;;;;23.55;9.80;;;;;;;15.30;100.00;101285.13;5024886;28;20424;-85
2023/10/02 07:30:36;;;;;;;23.15;10.02;;;;;;;15.39;100.00;101285.31;5042167;28;20435;-84
2023/10/02 07:33:09;;;;;;;22.73;9.93;;;;;;;15.50;100.00;101285.97;5042125;28;20773;-85
2023/10/02 07:35:52;;;;;;;22.63;10.10;;;;;;;15.50;100.00;101270.31;5024901;28;20423;-84
2023/10/02 07:38:30;;;;;;;22.35;9.73;;;;;;;15.56;100.00;101274.59;5028762;28;20444;-85
2023/10/02 07:41:07;;;;;;;22.90;9.67;;;;;;;15.63;100.00;101266.81;5025298;28;20768;-83
2023/10/02 07:43:42;;;;;;;21.98;9.65;;;;;;;15.70;100.00;101266.44;5030990;28;20423;-82
2023/10/02 07:46:15;;;;;;;23.25;10.10;;;;;;;15.76;100.00;101269.91;5036399;28;20434;-84
2023/10/02 07:48:55;;;;;;;22.08;9.55;;;;;;;15.77;100.00;101264.09;5028509;28;20423;-84
2023/10/02 07:51:30;;;;;;;25.20;10.10;;;;;;;15.84;100.00;101260.16;5024996;28;20431;-83
2023/10/02 07:54:04;;;;;;;27.10;14.05;;;;;;;16.06;100.00;101270.47;5022883;28;20423;-85
2023/10/02 07:56:41;;;;;;;23.40;9.77;;;;;;;16.06;100.00;101268.56;5026243;28;20454;-84
2023/10/02 07:59:11;;;;;;;22.58;10.18;;;;;;;16.37;100.00;101267.97;5025015;28;20432;-85
2023/10/02 08:01:39;;;;;;;21.75;9.18;;;;;;;16.22;100.00;101271.84;5025983;28;20421;-85
2023/10/02 08:04:13;;;;;;;25.77;10.37;;;;;;;16.35;100.00;101264.75;5026272;28;20453;-84
2023/10/02 08:06:44;;;;;;;24.48;10.23;;;;;;;16.40;100.00;101266.56;5025917;28;20442;-82
2023/10/02 08:12:00;;;;;;;23.40;9.60;;;;;;;16.54;100.00;101269.31;5018354;28;20422;-85
2023/10/02 08:14:42;;;;;;;24.13;9.23;;;;;;;16.59;100.00;101270.00;5021966;28;20440;-84
2023/10/02 08:17:21;;;;;;;22.15;9.60;;;;;;;16.72;100.00;101273.06;5009225;28;20446;-84
2023/10/02 08:19:54;;;;;;;22.73;9.63;;;;;;;16.81;100.00;101271.22;5012935;28;20431;-84
2023/10/02 08:22:23;;;;;;;25.30;10.98;;;;;;;16.93;100.00;101267.97;5020945;28;20881;-85
2023/10/02 08:24:56;;;;;;;29.75;14.30;;;;;;;17.05;100.00;101267.44;5010056;28;20437;-87
2023/10/02 08:27:32;;;;;;;21.60;10.23;;;;;;;17.04;100.00;101271.31;5010843;28;20440;-83
2023/10/02 08:30:18;;;;;;;21.90;9.48;;;;;;;17.15;100.00;101275.44;5007470;28;20431;-84
2023/10/02 08:32:49;;;;;;;24.20;9.32;;;;;;;17.10;100.00;101275.59;5008959;28;20428;-84
2023/10/02 08:35:24;;;;;;;26.33;9.90;;;;;;;17.14;100.00;101277.38;5016680;28;20768;-86
2023/10/02 08:37:54;;;;;;;24.45;9.48;;;;;;;17.23;100.00;101271.94;5033148;28;20789;-84
2023/10/02 08:40:22;;;;;;;23.23;9.50;;;;;;;17.20;100.00;101278.09;5010808;28;20442;-83
2023/10/02 08:42:57;;;;;;;26.40;9.65;;;;;;;17.18;100.00;101274.84;5015990;28;20441;-83
2023/10/02 08:45:32;;;;;;;24.00;9.45;;;;;;;17.14;100.00;101271.09;5005179;28;20452;-82
2023/10/02 08:48:07;;;;;;;19.60;9.00;;;;;;;17.19;100.00;101270.94;5006490;28;21542;-83
2023/10/02 08:50:41;;;;;;;22.77;9.43;;;;;;;17.23;100.00;101273.91;5014187;28;20795;-83
2023/10/02 08:53:20;;;;;;;22.65;9.48;;;;;;;17.23;100.00;101263.69;5010129;28;20427;-83
2023/10/02 08:56:22;;;;;;;22.52;8.95;;;;;;;17.30;100.00;101266.84;5031378;28;20431;-84
2023/10/02 08:59:17;;;;;;;22.27;9.70;;;;;;;17.43;100.00;101275.38;5013231;28;20423;-83
2023/10/02 09:01:48;;;;;;;22.15;9.52;;;;;;;17.43;100.00;101278.94;5012158;28;20440;-85
2023/10/02 09:04:29;;;;;;;21.77;9.30;;;;;;;17.47;100.00;101279.94;5014728;28;20438;-84
2023/10/02 09:07:14;;;;;;;21.40;9.77;;;;;;;17.50;100.00;101276.53;5012952;28;20459;-83
2023/10/02 09:09:54;;;;;;;26.80;9.68;;;;;;;17.60;100.00;101271.94;4988642;28;20844;-83
2023/10/02 09:12:29;;;;;;;22.10;9.45;;;;;;;17.68;100.00;101280.22;5008946;28;20434;-83
2023/10/02 09:15:20;;;;;;;22.42;9.10;;;;;;;17.77;100.00;101272.06;5012388;28;21040;-83
2023/10/02 09:17:57;;;;;;;26.75;10.50;;;;;;;17.82;100.00;101271.91;5013977;28;20452;-83
2023/10/02 09:20:38;;;;;;;23.67;9.70;;;;;;;17.92;100.00;101276.34;5011238;28;20469;-84
2023/10/02 09:23:09;;;;;;;25.53;9.60;;;;;;;17.95;100.00;101278.50;5013280;28;20430;-84
2023/10/02 09:26:16;;;;;;;23.65;9.35;;;;;;;18.02;100.00;101276.09;5017871;28;20425;-85
2023/10/02 09:28:58;;;;;;;22.20;9.23;;;;;;;18.28;100.00;101277.34;5011632;28;20442;-82
2023/10/02 09:31:34;;;;;;;23.70;9.45;;;;;;;18.32;100.00;101273.63;5028731;28;20450;-83
2023/10/02 09:34:11;;;;;;;25.50;9.80;;;;;;;18.53;100.00;101260.13;5017248;28;20461;-84
2023/10/02 09:36:52;;;;;;;23.13;9.57;;;;;;;18.35;100.00;101269.44;5020716;28;20788;-84
2023/10/02 09:39:35;;;;;;;23.40;9.13;;;;;;;18.46;100.00;101270.78;5017277;28;20425;-83
2023/10/02 09:42:10;;;;;;;22.48;9.48;;;;;;;18.50;100.00;101262.69;5013902;28;20748;-84
2023/10/02 09:44:45;;;;;;;24.25;9.02;;;;;;;18.62;100.00;101254.63;5019232;28;20413;-84
2023/10/02 09:47:14;;;;;;;22.38;9.20;;;;;;;18.74;100.00;101255.94;5015344;28;20446;-85
2023/10/02 09:50:10;;;;;;;23.80;9.93;;;;;;;18.74;100.00;101248.50;5020389;28;20442;-85
2023/10/02 09:52:57;;;;;;;23.10;9.13;;;;;;;18.73;100.00;101248.81;5010497;28;20425;-84
2023/10/02 09:55:40;;;;;;;20.23;9.48;;;;;;;18.80;100.00;101244.44;5015373;28;20442;-85
2023/10/02 09:58:29;;;;;;;21.58;9.85;;;;;;;18.79;100.00;101242.78;5024352;28;20421;-84
2023/10/02 10:01:35;;;;;;;19.95;8.77;;;;;;;18.91;100.00;101249.69;5014948;28;20838;-84
2023/10/02 10:07:09;;;;;;;26.00;9.40;;;;;;;19.13;100.00;101243.19;5020792;28;20540;-84
2023/10/02 10:12:50;;;;;;;20.13;8.88;;;;;;;19.12;100.00;101252.59;5007721;28;20450;-84
2023/10/02 10:15:23;;;;;;;22.27;9.48;;;;;;;19.09;100.00;101243.03;5014021;28;20427;-84
2023/10/02 10:17:58;;;;;;;23.95;9.18;;;;;;;19.07;100.00;101238.97;5022518;28;21098;-84
2023/10/02 10:20:28;;;;;;;21.23;9.15;;;;;;;19.12;100.00;101236.84;5018937;28;20431;-84
2023/10/02 10:22:57;;;;;;;19.88;8.75;;;;;;;19.27;100.00;101238.31;5015456;28;20920;-84
2023/10/02 10:25:50;;;;;;;22.48;9.25;;;;;;;19.25;100.00;101229.56;5018362;28;20431;-85
2023/10/02 10:28:27;;;;;;;21.57;8.77;;;;;;;19.20;100.00;101227.75;5017988;28;20451;-84
2023/10/02 10:31:08;;;;;;;23.83;9.00;;;;;;;19.41;100.00;101226.31;5014601;28;20431;-84
2023/10/02 10:33:40;;;;;;;23.65;9.55;;;;;;;19.32;100.00;101221.59;5017520;28;20880;-85
2023/10/02 10:36:46;;;;;;;33.80;15.95;;;;;;;19.53;100.00;101229.22;5017528;28;20429;-83
2023/10/02 10:40:25;;;;;;;20.23;8.60;;;;;;;19.61;100.00;101233.91;4939525;28;20492;-83
2023/10/02 10:43:00;;;;;;;22.08;9.05;;;;;;;19.62;100.00;101224.47;5013991;28;20433;-84
2023/10/02 10:45:33;;;;;;;20.75;9.07;;;;;;;19.53;100.00;101224.50;5010020;28;21117;-84
2023/10/02 10:48:18;;;;;;;21.38;8.57;;;;;;;19.61;100.00;101230.31;5017133;28;20431;-84
2023/10/02 10:50:57;;;;;;;21.45;8.50;;;;;;;19.82;100.00;101228.50;5017135;28;20923;-84
2023/10/02 10:53:28;;;;;;;20.90;8.38;;;;;;;19.98;100.00;101226.03;5016370;28;20443;-81
2023/10/02 10:56:03;;;;;;;26.63;13.57;;;;;;;19.82;100.00;101219.44;5023895;28;20431;-85
2023/10/02 10:58:37;;;;;;;41.88;22.00;;;;;;;19.82;100.00;101217.47;5017375;28;21001;-86
2023/10/02 11:01:07;;;;;;;23.58;9.27;;;;;;;19.94;100.00;101221.47;5008267;28;20431;-84
2023/10/02 11:03:41;;;;;;;21.73;8.90;;;;;;;19.78;100.00;101219.22;5011918;28;22210;-85
2023/10/02 11:06:16;;;;;;;21.70;8.85;;;;;;;19.93;100.00;101212.41;5009772;28;20435;-83
2023/10/02 11:09:11;;;;;;;21.55;9.48;;;;;;;19.94;100.00;101211.25;5011446;28;20893;-84
2023/10/02 11:11:50;;;;;;;21.15;9.10;;;;;;;20.01;100.00;101205.19;5000752;28;20415;-83
2023/10/02 11:14:21;;;;;;;19.92;8.95;;;;;;;20.28;100.00;101216.97;5014932;28;20452;-84
2023/10/02 11:16:56;;;;;;;19.73;8.80;;;;;;;20.33;100.00;101200.19;5006953;28;20433;-85
2023/10/02 11:19:35;;;;;;;20.90;8.60;;;;;;;20.32;100.00;101221.47;5002531;28;20432;-82
2023/10/02 11:22:18;;;;;;;22.63;8.38;;;;;;;20.48;100.00;101216.19;5006172;28;20429;-84
2023/10/02 11:25:17;;;;;;;25.17;9.33;;;;;;;20.58;100.00;101214.16;5008592;28;20427;-83
2023/10/02 11:27:56;;;;;;;26.80;9.10;;;;;;;20.74;100.00;101212.47;5006315;28;20430;-85
2023/10/02 11:30:34;;;;;;;19.15;8.38;;;;;;;20.67;100.00;101214.94;5031927;28;20429;-85
2023/10/02 11:33:07;;;;;;;33.15;9.23;;;;;;;20.59;100.00;101218.56;5010211;28;20438;-84
2023/10/02 11:35:40;;;;;;;21.60;8.05;;;;;;;20.54;100.00;101216.81;5014091;28;20432;-84
2023/10/02 11:38:09;;;;;;;20.77;8.02;;;;;;;20.72;100.00;101212.00;5017597;28;20439;-84
2023/10/02 11:40:44;;;;;;;19.08;8.40;;;;;;;20.83;100.00;101210.47;5027808;28;20425;-84
2023/10/02 11:43:17;;;;;;;23.52;8.05;;;;;;;20.90;100.00;101215.47;5037639;28;20433;-85
2023/10/02 11:45:47;;;;;;;18.35;8.07;;;;;;;21.02;100.00;101198.91;5016838;28;20436;-84
2023/10/02 11:48:16;;;;;;;18.85;8.05;;;;;;;20.87;100.00;101202.31;5022207;28;20423;-85
2023/10/02 11:50:50;;;;;;;19.55;8.18;;;;;;;20.90;100.00;101207.16;5016443;28;20431;-84
2023/10/02 11:53:24;;;;;;;20.77;8.18;;;;;;;20.98;100.00;101202.72;5013993;28;20436;-84
2023/10/02 11:55:57;;;;;;;18.70;8.55;;;;;;;20.97;100.00;101201.09;5017107;28;20448;-84
2023/10/02 11:58:25;;;;;;;19.55;7.85;;;;;;;20.83;100.00;101199.41;5015502;28;20613;-84
2023/10/02 12:01:04;;;;;;;19.00;8.13;;;;;;;20.90;100.00;101194.13;5018678;28;20438;-84
2023/10/02 12:03:39;;;;;;;17.23;7.72;;;;;;;20.75;100.00;101191.97;5023063;28;20435;-82
2023/10/02 12:06:14;;;;;;;21.65;7.68;;;;;;;20.79;100.00;101184.63;5021198;28;20440;-86
2023/10/02 12:08:49;;;;;;;21.08;7.90;;;;;;;20.76;100.00;101182.53;5026110;28;20426;-87
2023/10/02 12:11:17;;;;;;;18.63;7.57;;;;;;;20.78;100.00;101185.75;4999473;28;20453;-86
2023/10/02 12:13:51;;;;;;;19.73;8.13;;;;;;;20.81;100.00;101182.34;5017935;28;21359;-85